Terminal Aerodrome Forecast
Issued by NWS Quad Cities IA IL

Current Version | Previous Version | Text Only | Print | Product List | Glossary On
Versions: 1 2 3 4 5 6 7 8 9 10 11 12 13
970
FTUS43 KDVN 161127
TAFDBQ
TAF
KDBQ 161127Z 1612/1712 12006KT 3SM -FZRA BR OVC008
     FM161300 09008KT 1SM -FZRA BR OVC003
     FM161700 09010KT 2SM RA BR OVC003
     FM170300 08005KT 1SM -DZ BR OVC002
     FM170700 35008KT 1SM -DZ BR OVC002=

USA.gov is the U.S. government's official web portal to all federal, state and local government web resources and services.